Time;durP1;ratioP1;P1;durP2;ratioP2;P2;SDS_P1;SDS_P2;PMS_P1;PMS_P2;Temp;Humidity;BMP_temperature;BMP_pressure;BME280_temperature;BME280_humidity;BME280_pressure;Samples;Min_cycle;Max_cycle;Signal;HPM_P1;HPM_P2
2024/04/08 00:01:17;;;;;;;3.45;1.40;;;;;;;;;;4346389;32;316725;-77
2024/04/08 00:03:44;;;;;;;9.32;2.87;;;;;;;;;;4344171;32;317342;-77
2024/04/08 00:06:16;;;;;;;6.10;2.75;;;;;;;;;;4337736;32;316595;-77
2024/04/08 00:08:43;;;;;;;3.00;1.87;;;;;;;;;;4350749;32;317103;-77
2024/04/08 00:11:11;;;;;;;2.35;1.50;;;;;;;;;;4344689;32;317057;-77
2024/04/08 00:13:37;;;;;;;3.62;1.37;;;;;;;;;;4336599;32;316821;-78
2024/04/08 00:16:11;;;;;;;3.28;1.90;;;;;;;;;;4360940;32;317235;-77
2024/04/08 00:18:40;;;;;;;3.85;1.50;;;;;;;;;;4334753;32;416661;-77
2024/04/08 00:21:09;;;;;;;3.42;1.73;;;;;;;;;;4361289;32;317092;-77
2024/04/08 00:23:37;;;;;;;1.70;1.45;;;;;;;;;;4329323;32;416148;-77
2024/04/08 00:26:05;;;;;;;4.75;1.90;;;;;;;;;;4354529;32;316746;-77
2024/04/08 00:28:33;;;;;;;3.87;1.52;;;;;;;;;;4346395;32;317256;-77
2024/04/08 00:31:02;;;;;;;5.62;1.50;;;;;;;;;;4353745;32;316589;-77
2024/04/08 00:33:30;;;;;;;4.50;1.70;;;;;;;;;;4352356;32;316975;-78
2024/04/08 00:36:05;;;;;;;4.65;2.45;;;;;;;;;;4355424;32;316677;-77
2024/04/08 00:38:33;;;;;;;4.82;1.58;;;;;;;;;;4342785;32;347300;-76
2024/04/08 00:41:10;;;;;;;5.37;1.75;;;;;;;;;;4362969;32;317073;-76
2024/04/08 00:43:36;;;;;;;3.87;1.95;;;;;;;;;;4329567;32;416791;-76
2024/04/08 00:46:08;;;;;;;6.30;1.58;;;;;;;;;;4365437;32;317112;-78
2024/04/08 00:48:34;;;;;;;3.00;1.60;;;;;;;;;;4347960;32;317409;-77
2024/04/08 00:51:09;;;;;;;7.97;2.10;;;;;;;;;;4365992;32;316560;-77
2024/04/08 00:53:37;;;;;;;5.60;2.25;;;;;;;;;;4331445;32;416054;-78
2024/04/08 00:56:05;;;;;;;3.62;1.48;;;;;;;;;;4364425;32;317253;-79
2024/04/08 00:58:31;;;;;;;4.55;1.40;;;;;;;;;;4341583;32;317340;-78
2024/04/08 01:01:03;;;;;;;3.33;1.48;;;;;;;;;;4359687;32;316881;-77
2024/04/08 01:03:30;;;;;;;3.67;1.42;;;;;;;;;;4344515;32;316889;-77
2024/04/08 01:05:56;;;;;;;7.25;1.60;;;;;;;;;;4347430;32;316419;-78
2024/04/08 01:08:24;;;;;;;3.75;1.40;;;;;;;;;;4333763;32;316519;-78
2024/04/08 01:10:50;;;;;;;3.83;1.30;;;;;;;;;;4352502;32;316593;-77
2024/04/08 01:13:26;;;;;;;3.12;1.50;;;;;;;;;;4326402;32;316528;-77
2024/04/08 01:15:52;;;;;;;5.82;1.45;;;;;;;;;;4342163;32;316408;-77
2024/04/08 01:18:22;;;;;;;4.60;1.48;;;;;;;;;;4339874;32;316568;-78
2024/04/08 01:20:47;;;;;;;2.65;1.35;;;;;;;;;;4351600;32;316976;-77
2024/04/08 01:23:17;;;;;;;3.90;1.23;;;;;;;;;;4348040;32;316469;-78
2024/04/08 01:25:46;;;;;;;3.37;1.35;;;;;;;;;;4345758;32;316830;-77
2024/04/08 01:28:16;;;;;;;3.85;1.20;;;;;;;;;;4349389;32;317190;-77
2024/04/08 01:30:42;;;;;;;2.70;1.52;;;;;;;;;;4342563;32;316745;-77
2024/04/08 01:33:10;;;;;;;2.37;1.50;;;;;;;;;;4359947;32;316358;-77
2024/04/08 01:35:37;;;;;;;5.12;1.62;;;;;;;;;;4337430;32;417588;-77
2024/04/08 01:38:06;;;;;;;5.97;1.98;;;;;;;;;;4334035;32;316306;-77
2024/04/08 01:40:34;;;;;;;4.65;1.65;;;;;;;;;;4325470;32;315367;-77
2024/04/08 01:43:07;;;;;;;3.70;1.85;;;;;;;;;;4335912;32;315426;-77
2024/04/08 01:45:35;;;;;;;3.33;1.55;;;;;;;;;;4335969;32;418122;-78
2024/04/08 01:48:03;;;;;;;7.15;2.05;;;;;;;;;;4349756;32;316662;-78
2024/04/08 01:50:31;;;;;;;5.87;1.75;;;;;;;;;;4329322;32;321036;-78
2024/04/08 01:53:01;;;;;;;4.72;2.15;;;;;;;;;;4363096;32;317101;-77
2024/04/08 01:55:27;;;;;;;10.27;2.22;;;;;;;;;;4346162;32;317129;-78
2024/04/08 01:58:03;;;;;;;5.12;2.20;;;;;;;;;;4364745;32;317852;-78
2024/04/08 02:00:31;;;;;;;5.05;2.17;;;;;;;;;;4339694;32;316791;-77
2024/04/08 02:02:59;;;;;;;4.95;2.03;;;;;;;;;;4345329;32;316334;-77
2024/04/08 02:05:25;;;;;;;4.30;2.12;;;;;;;;;;4350657;32;317233;-77
2024/04/08 02:07:56;;;;;;;4.28;2.25;;;;;;;;;;4366157;32;316857;-77
2024/04/08 02:10:23;;;;;;;5.22;2.80;;;;;;;;;;4369023;32;317013;-77
2024/04/08 02:12:54;;;;;;;7.03;3.08;;;;;;;;;;4384483;32;316554;-77
2024/04/08 02:15:20;;;;;;;3.70;2.55;;;;;;;;;;4376400;32;315441;-77
2024/04/08 02:17:49;;;;;;;4.75;2.62;;;;;;;;;;4393772;32;316678;-77
2024/04/08 02:20:16;;;;;;;7.12;2.55;;;;;;;;;;4375286;32;315833;-78
2024/04/08 02:22:46;;;;;;;6.03;2.78;;;;;;;;;;4388124;32;316705;-78
2024/04/08 02:25:12;;;;;;;6.68;2.62;;;;;;;;;;4376851;32;335446;-77
2024/04/08 02:27:39;;;;;;;4.32;2.20;;;;;;;;;;4394022;32;317069;-77
2024/04/08 02:30:09;;;;;;;7.87;2.33;;;;;;;;;;4386496;32;316559;-77
2024/04/08 02:32:40;;;;;;;5.32;2.28;;;;;;;;;;4361809;32;418061;-78
2024/04/08 02:35:07;;;;;;;3.72;2.03;;;;;;;;;;4373585;32;316720;-78
2024/04/08 02:37:34;;;;;;;5.82;2.10;;;;;;;;;;4351221;32;417400;-77
2024/04/08 02:40:04;;;;;;;7.30;2.33;;;;;;;;;;4378778;32;323646;-77
2024/04/08 02:42:34;;;;;;;4.93;2.33;;;;;;;;;;4367930;32;315522;-77
2024/04/08 02:45:03;;;;;;;4.18;2.30;;;;;;;;;;4394091;32;316356;-78
2024/04/08 02:47:33;;;;;;;10.18;2.58;;;;;;;;;;4365507;32;327168;-77
2024/04/08 02:50:10;;;;;;;7.45;2.90;;;;;;;;;;4391205;32;318228;-77
2024/04/08 02:52:37;;;;;;;9.70;3.72;;;;;;;;;;4367020;32;416900;-76
2024/04/08 02:55:05;;;;;;;6.62;4.07;;;;;;;;;;4386102;32;316906;-78
2024/04/08 02:57:30;;;;;;;6.95;3.67;;;;;;;;;;4383902;32;317077;-77
2024/04/08 03:00:01;;;;;;;13.23;3.35;;;;;;;;;;4385813;32;316604;-77
2024/04/08 03:02:26;;;;;;;10.38;3.47;;;;;;;;;;4366596;32;317905;-78
2024/04/08 03:04:56;;;;;;;5.53;3.58;;;;;;;;;;4382442;32;318135;-77
2024/04/08 03:07:22;;;;;;;11.77;7.65;;;;;;;;;;4391441;32;316829;-77
2024/04/08 03:09:58;;;;;;;44.60;25.52;;;;;;;;;;4389799;32;317868;-77
2024/04/08 03:12:24;;;;;;;33.35;23.12;;;;;;;;;;4363353;32;319278;-78
2024/04/08 03:14:52;;;;;;;28.38;19.98;;;;;;;;;;4377832;32;320058;-77
2024/04/08 03:17:18;;;;;;;24.60;15.15;;;;;;;;;;4359408;32;318818;-77
2024/04/08 03:19:45;;;;;;;23.45;13.57;;;;;;;;;;4365283;32;318839;-77
2024/04/08 03:22:11;;;;;;;13.98;6.15;;;;;;;;;;4356285;32;319215;-78
2024/04/08 03:24:38;;;;;;;5.45;3.10;;;;;;;;;;4369832;32;317722;-77
2024/04/08 03:27:07;;;;;;;5.47;3.00;;;;;;;;;;4372039;32;317054;-77
2024/04/08 03:29:34;;;;;;;9.15;3.40;;;;;;;;;;4364482;32;418440;-78
2024/04/08 03:32:04;;;;;;;8.13;3.95;;;;;;;;;;4378883;32;317190;-77
2024/04/08 03:34:34;;;;;;;9.90;3.72;;;;;;;;;;4361127;32;317148;-79
2024/04/08 03:37:01;;;;;;;6.05;3.65;;;;;;;;;;4379191;32;317081;-77
2024/04/08 03:39:29;;;;;;;8.15;3.12;;;;;;;;;;4368515;32;317067;-77
2024/04/08 03:42:05;;;;;;;3.20;1.97;;;;;;;;;;4373979;32;316573;-77
2024/04/08 03:44:36;;;;;;;4.35;2.40;;;;;;;;;;4367820;32;316542;-77
2024/04/08 03:47:03;;;;;;;4.72;2.50;;;;;;;;;;4379871;32;316785;-77
2024/04/08 03:49:31;;;;;;;3.25;2.25;;;;;;;;;;4382144;32;335208;-77
2024/04/08 03:52:03;;;;;;;8.23;3.00;;;;;;;;;;4393441;32;316437;-77
2024/04/08 03:54:31;;;;;;;10.00;3.08;;;;;;;;;;4377939;32;317198;-78
2024/04/08 03:56:58;;;;;;;11.20;2.87;;;;;;;;;;4380958;32;318374;-78
2024/04/08 03:59:25;;;;;;;9.05;3.60;;;;;;;;;;4377233;32;317912;-77
2024/04/08 04:04:35;;;;;;;7.50;4.10;;;;;;;;;;4361282;32;389145;-77
2024/04/08 04:07:02;;;;;;;11.43;3.28;;;;;;;;;;4369045;32;317244;-77
2024/04/08 04:09:29;;;;;;;11.73;4.87;;;;;;;;;;4371854;32;318260;-78
2024/04/08 04:11:57;;;;;;;14.85;5.93;;;;;;;;;;4365051;32;318102;-78
2024/04/08 04:14:31;;;;;;;8.32;5.87;;;;;;;;;;4377863;32;318260;-78
2024/04/08 04:17:06;;;;;;;15.43;5.03;;;;;;;;;;4367560;32;317178;-76
2024/04/08 04:19:35;;;;;;;13.02;4.85;;;;;;;;;;4377506;32;317519;-78
2024/04/08 04:22:03;;;;;;;13.50;5.43;;;;;;;;;;4377350;32;318245;-77
2024/04/08 04:24:33;;;;;;;9.60;5.97;;;;;;;;;;4381263;32;318158;-77
2024/04/08 04:26:59;;;;;;;21.00;7.53;;;;;;;;;;4370060;32;317140;-77
2024/04/08 04:29:28;;;;;;;15.13;6.45;;;;;;;;;;4372007;32;317596;-77
2024/04/08 04:31:54;;;;;;;13.90;6.30;;;;;;;;;;4370096;32;318423;-77
2024/04/08 04:34:22;;;;;;;14.10;6.10;;;;;;;;;;4381250;32;317665;-77
2024/04/08 04:36:48;;;;;;;8.23;4.87;;;;;;;;;;4374990;32;317559;-77
2024/04/08 04:39:25;;;;;;;13.02;4.90;;;;;;;;;;4366026;32;317134;-77
2024/04/08 04:41:52;;;;;;;14.33;4.77;;;;;;;;;;4383221;32;318096;-77
2024/04/08 04:44:21;;;;;;;7.00;4.30;;;;;;;;;;4367136;32;417343;-78
2024/04/08 04:46:47;;;;;;;14.27;4.90;;;;;;;;;;4380526;32;317036;-77
2024/04/08 04:49:14;;;;;;;13.23;5.30;;;;;;;;;;4360471;32;318025;-78
2024/04/08 04:51:50;;;;;;;20.00;6.53;;;;;;;;;;4380855;32;318064;-77
2024/04/08 04:54:20;;;;;;;17.27;7.68;;;;;;;;;;4374836;32;318169;-77
2024/04/08 04:56:47;;;;;;;21.50;9.05;;;;;;;;;;4387764;32;318649;-79
2024/04/08 04:59:24;;;;;;;28.85;10.68;;;;;;;;;;4386917;32;318010;-77
2024/04/08 05:01:49;;;;;;;22.25;8.18;;;;;;;;;;4411564;32;317982;-77
2024/04/08 05:04:16;;;;;;;16.27;5.82;;;;;;;;;;4402570;32;317720;-77
2024/04/08 05:06:43;;;;;;;13.80;5.97;;;;;;;;;;4411508;32;317018;-76
2024/04/08 05:09:10;;;;;;;19.53;7.73;;;;;;;;;;4391535;32;316823;-77
2024/04/08 05:11:35;;;;;;;18.65;7.90;;;;;;;;;;4395000;32;318306;-78
2024/04/08 05:14:02;;;;;;;16.30;7.10;;;;;;;;;;4384731;32;318230;-78
2024/04/08 05:16:28;;;;;;;11.52;5.82;;;;;;;;;;4396547;32;318050;-79
2024/04/08 05:18:55;;;;;;;15.73;7.03;;;;;;;;;;4385175;32;318402;-78
2024/04/08 05:21:21;;;;;;;26.27;8.32;;;;;;;;;;4386972;32;318189;-78
2024/04/08 05:23:49;;;;;;;24.73;10.30;;;;;;;;;;4400370;32;318622;-78
2024/04/08 05:26:15;;;;;;;14.77;8.13;;;;;;;;;;4387030;32;319287;-79
2024/04/08 05:28:42;;;;;;;20.55;7.18;;;;;;;;;;4394177;32;318580;-77
2024/04/08 05:31:08;;;;;;;29.35;6.45;;;;;;;;;;4375945;32;318185;-79
2024/04/08 05:33:35;;;;;;;14.05;5.43;;;;;;;;;;4392873;32;320160;-80
2024/04/08 05:36:01;;;;;;;36.15;6.62;;;;;;;;;;4384453;32;318285;-79
2024/04/08 05:38:29;;;;;;;16.07;6.13;;;;;;;;;;4394007;32;318296;-79
2024/04/08 05:41:00;;;;;;;15.20;6.32;;;;;;;;;;4385288;32;318107;-80
2024/04/08 05:43:26;;;;;;;19.30;6.85;;;;;;;;;;4386959;32;317773;-79
2024/04/08 05:45:53;;;;;;;9.10;6.28;;;;;;;;;;4393439;32;318147;-79
2024/04/08 05:48:19;;;;;;;18.60;6.28;;;;;;;;;;4379553;32;416466;-77
2024/04/08 05:50:47;;;;;;;9.63;4.68;;;;;;;;;;4393380;32;318354;-78
2024/04/08 05:53:13;;;;;;;20.08;5.40;;;;;;;;;;4375028;32;344596;-77
2024/04/08 05:55:39;;;;;;;14.05;5.78;;;;;;;;;;4392084;32;319874;-76
2024/04/08 05:58:08;;;;;;;10.23;4.30;;;;;;;;;;4384041;32;318262;-77
2024/04/08 06:00:36;;;;;;;6.70;3.78;;;;;;;;;;4387679;32;318166;-79
2024/04/08 06:03:01;;;;;;;7.20;3.60;;;;;;;;;;4368619;32;317295;-80
2024/04/08 06:05:28;;;;;;;9.65;3.90;;;;;;;;;;4370652;32;317170;-77
2024/04/08 06:07:54;;;;;;;4.32;2.80;;;;;;;;;;4367204;32;317167;-78
2024/04/08 06:10:22;;;;;;;13.13;3.30;;;;;;;;;;4391156;32;317528;-77
2024/04/08 06:12:49;;;;;;;10.75;2.60;;;;;;;;;;4394635;32;318394;-77
2024/04/08 06:15:17;;;;;;;5.32;3.35;;;;;;;;;;4391179;32;318657;-77
2024/04/08 06:17:43;;;;;;;6.97;4.50;;;;;;;;;;4405987;32;350079;-77
2024/04/08 06:20:10;;;;;;;8.35;3.42;;;;;;;;;;4397624;32;316899;-78
2024/04/08 06:22:36;;;;;;;11.77;3.33;;;;;;;;;;4407403;32;317046;-79
2024/04/08 06:25:04;;;;;;;15.10;4.32;;;;;;;;;;4397703;32;318058;-78
2024/04/08 06:27:29;;;;;;;14.60;4.40;;;;;;;;;;4405849;32;318566;-78
2024/04/08 06:29:56;;;;;;;20.25;5.57;;;;;;;;;;4399049;32;318319;-78
2024/04/08 06:32:23;;;;;;;10.38;5.85;;;;;;;;;;4407526;32;354304;-78
2024/04/08 06:34:51;;;;;;;12.98;6.15;;;;;;;;;;4390065;32;318962;-78
2024/04/08 06:37:16;;;;;;;15.55;5.32;;;;;;;;;;4362205;32;318378;-78
2024/04/08 06:39:43;;;;;;;21.45;6.18;;;;;;;;;;4378146;32;318348;-79
2024/04/08 06:42:16;;;;;;;10.07;5.20;;;;;;;;;;4367984;32;318348;-78
2024/04/08 06:44:47;;;;;;;19.48;5.35;;;;;;;;;;4378157;32;318166;-78
2024/04/08 06:47:12;;;;;;;15.50;4.90;;;;;;;;;;4371262;32;318180;-77
2024/04/08 06:49:40;;;;;;;13.13;4.68;;;;;;;;;;4393103;32;318800;-79
2024/04/08 06:52:06;;;;;;;9.32;3.80;;;;;;;;;;4382825;32;318385;-78
2024/04/08 06:54:33;;;;;;;9.02;3.90;;;;;;;;;;4393014;32;317633;-78
2024/04/08 06:56:59;;;;;;;12.80;5.43;;;;;;;;;;4382907;32;317228;-78
2024/04/08 06:59:27;;;;;;;20.33;5.18;;;;;;;;;;4386342;32;318484;-77
2024/04/08 07:01:53;;;;;;;8.15;4.12;;;;;;;;;;4376210;32;318445;-78
2024/04/08 07:04:21;;;;;;;9.43;4.53;;;;;;;;;;4386925;32;317222;-78
2024/04/08 07:06:48;;;;;;;12.85;4.57;;;;;;;;;;4379439;32;317334;-78
2024/04/08 07:09:15;;;;;;;7.82;3.45;;;;;;;;;;4376465;32;318968;-79
2024/04/08 07:11:40;;;;;;;7.78;2.78;;;;;;;;;;4391642;32;317503;-77
2024/04/08 07:14:07;;;;;;;7.85;3.55;;;;;;;;;;4383233;32;317290;-77
2024/04/08 07:16:33;;;;;;;5.75;2.92;;;;;;;;;;4391663;32;317416;-77
2024/04/08 07:19:00;;;;;;;5.85;2.78;;;;;;;;;;4381248;32;330664;-78
2024/04/08 07:21:25;;;;;;;8.40;3.35;;;;;;;;;;4384811;32;316943;-78
2024/04/08 07:23:53;;;;;;;12.90;2.10;;;;;;;;;;4392507;32;317327;-77
2024/04/08 07:26:19;;;;;;;3.30;1.70;;;;;;;;;;4378997;32;417718;-76
2024/04/08 07:28:46;;;;;;;3.95;1.62;;;;;;;;;;4391372;32;317746;-78
2024/04/08 07:31:11;;;;;;;3.40;1.77;;;;;;;;;;4376429;32;317322;-78
2024/04/08 07:33:38;;;;;;;4.35;1.67;;;;;;;;;;4392733;32;317257;-78
2024/04/08 07:36:05;;;;;;;4.28;1.42;;;;;;;;;;4383222;32;317237;-77
2024/04/08 07:38:32;;;;;;;6.78;2.08;;;;;;;;;;4392718;32;317499;-78
2024/04/08 07:40:59;;;;;;;4.05;2.10;;;;;;;;;;4382759;32;317248;-79
2024/04/08 07:43:25;;;;;;;4.93;2.10;;;;;;;;;;4383821;32;317448;-81
2024/04/08 07:45:51;;;;;;;3.92;1.95;;;;;;;;;;4390781;32;317386;-79
2024/04/08 07:48:19;;;;;;;2.92;1.58;;;;;;;;;;4379127;32;317744;-80
2024/04/08 07:50:45;;;;;;;6.25;1.52;;;;;;;;;;4391398;32;317274;-78
2024/04/08 07:53:12;;;;;;;11.30;1.55;;;;;;;;;;4375953;32;342722;-81
2024/04/08 07:55:38;;;;;;;5.95;2.05;;;;;;;;;;4395055;32;318393;-81
2024/04/08 07:58:06;;;;;;;13.57;1.60;;;;;;;;;;4385937;32;317254;-79
2024/04/08 08:00:32;;;;;;;2.60;1.40;;;;;;;;;;4395659;32;317705;-79
2024/04/08 08:03:01;;;;;;;3.70;1.40;;;;;;;;;;4384847;32;317248;-79
2024/04/08 08:05:27;;;;;;;7.22;2.78;;;;;;;;;;4379759;32;317408;-80
2024/04/08 08:07:53;;;;;;;5.43;2.45;;;;;;;;;;4384061;32;316775;-80
2024/04/08 08:10:20;;;;;;;6.30;2.35;;;;;;;;;;4384499;32;417734;-80
2024/04/08 08:12:47;;;;;;;4.47;1.42;;;;;;;;;;4397742;32;338232;-79
2024/04/08 08:15:15;;;;;;;3.87;1.50;;;;;;;;;;4382638;32;317331;-79
2024/04/08 08:17:42;;;;;;;4.32;1.55;;;;;;;;;;4385823;32;317359;-79
2024/04/08 08:20:09;;;;;;;10.57;1.95;;;;;;;;;;4373213;32;317244;-79
2024/04/08 08:22:36;;;;;;;4.80;1.83;;;;;;;;;;4383377;32;318504;-80
2024/04/08 08:25:03;;;;;;;3.12;2.10;;;;;;;;;;4373566;32;317381;-79
2024/04/08 08:27:30;;;;;;;2.53;1.37;;;;;;;;;;4380563;32;317401;-79
2024/04/08 08:29:56;;;;;;;7.40;1.73;;;;;;;;;;4383908;32;343023;-79
2024/04/08 08:32:24;;;;;;;2.80;1.37;;;;;;;;;;4396976;32;318189;-80
2024/04/08 08:34:52;;;;;;;6.40;1.17;;;;;;;;;;4398381;32;317247;-79
2024/04/08 08:37:18;;;;;;;10.40;2.30;;;;;;;;;;4381597;32;317250;-79
2024/04/08 08:39:49;;;;;;;2.60;1.40;;;;;;;;;;4396520;32;318219;-79
2024/04/08 08:42:19;;;;;;;3.85;1.10;;;;;;;;;;4387744;32;317254;-80
2024/04/08 08:44:51;;;;;;;4.60;1.40;;;;;;;;;;4398037;32;317475;-80
2024/04/08 08:47:16;;;;;;;8.27;1.42;;;;;;;;;;4378717;32;317134;-79
2024/04/08 08:49:46;;;;;;;2.67;1.40;;;;;;;;;;4395088;32;316821;-79
2024/04/08 08:52:12;;;;;;;3.33;1.25;;;;;;;;;;4384704;32;316826;-79
2024/04/08 08:54:38;;;;;;;5.22;1.58;;;;;;;;;;4394224;32;317395;-78
2024/04/08 08:57:05;;;;;;;5.25;1.67;;;;;;;;;;4378759;32;317232;-78
2024/04/08 08:59:33;;;;;;;7.40;1.27;;;;;;;;;;4395063;32;317238;-79
2024/04/08 09:01:59;;;;;;;2.95;1.33;;;;;;;;;;4384557;32;317112;-78
2024/04/08 09:04:27;;;;;;;2.80;1.10;;;;;;;;;;4404090;32;317304;-78
2024/04/08 09:06:54;;;;;;;4.75;1.80;;;;;;;;;;4405915;32;317166;-79
2024/04/08 09:09:21;;;;;;;3.05;1.42;;;;;;;;;;4381835;32;417288;-79
2024/04/08 09:11:47;;;;;;;3.65;1.37;;;;;;;;;;4395375;32;316509;-78
2024/04/08 09:14:14;;;;;;;9.00;1.58;;;;;;;;;;4383871;32;317261;-79
2024/04/08 09:16:41;;;;;;;5.40;1.42;;;;;;;;;;4394395;32;317154;-80
2024/04/08 09:19:08;;;;;;;3.85;1.60;;;;;;;;;;4378840;32;317542;-79
2024/04/08 09:21:34;;;;;;;6.57;1.87;;;;;;;;;;4395037;32;317242;-79
2024/04/08 09:24:07;;;;;;;4.87;1.60;;;;;;;;;;4387865;32;317371;-79
2024/04/08 09:26:33;;;;;;;2.25;1.23;;;;;;;;;;4402422;32;317805;-80
2024/04/08 09:29:01;;;;;;;5.97;1.70;;;;;;;;;;4387005;32;317598;-78
2024/04/08 09:31:27;;;;;;;7.05;1.73;;;;;;;;;;4387069;32;316695;-77
2024/04/08 09:33:54;;;;;;;3.75;1.27;;;;;;;;;;4394693;32;317483;-79
2024/04/08 09:36:20;;;;;;;2.17;0.90;;;;;;;;;;4380028;32;417890;-79
2024/04/08 09:38:47;;;;;;;2.45;1.23;;;;;;;;;;4390719;32;353511;-79
2024/04/08 09:41:17;;;;;;;2.03;1.12;;;;;;;;;;4373616;32;357014;-80
2024/04/08 09:43:45;;;;;;;3.55;2.17;;;;;;;;;;4392353;32;317409;-80
2024/04/08 09:46:13;;;;;;;5.07;1.40;;;;;;;;;;4384402;32;333246;-80
2024/04/08 09:48:41;;;;;;;1.75;1.10;;;;;;;;;;4395177;32;317558;-80
2024/04/08 09:51:08;;;;;;;3.90;1.25;;;;;;;;;;4378454;32;317274;-81
2024/04/08 09:53:35;;;;;;;4.30;1.42;;;;;;;;;;4396666;32;317277;-80
2024/04/08 09:56:03;;;;;;;7.05;1.02;;;;;;;;;;4386830;32;317339;-80
2024/04/08 09:58:33;;;;;;;1.92;1.05;;;;;;;;;;4398170;32;316492;-80
2024/04/08 10:01:03;;;;;;;6.93;1.00;;;;;;;;;;4386905;32;317214;-80
2024/04/08 10:03:38;;;;;;;3.75;1.20;;;;;;;;;;4393203;32;317469;-80
2024/04/08 10:06:05;;;;;;;3.03;1.40;;;;;;;;;;4386506;32;317723;-81
2024/04/08 10:08:32;;;;;;;0.93;0.62;;;;;;;;;;4400905;32;317249;-79
2024/04/08 10:10:58;;;;;;;3.87;2.00;;;;;;;;;;4390762;32;317095;-79
2024/04/08 10:13:24;;;;;;;1.55;1.00;;;;;;;;;;4390892;32;317447;-79
2024/04/08 10:15:52;;;;;;;2.83;1.25;;;;;;;;;;4396013;32;317124;-79
2024/04/08 10:18:20;;;;;;;6.72;0.95;;;;;;;;;;4385823;32;317184;-79
2024/04/08 10:20:45;;;;;;;2.65;1.40;;;;;;;;;;4394432;32;317442;-79
2024/04/08 10:23:12;;;;;;;3.80;1.00;;;;;;;;;;4379491;32;317754;-79
2024/04/08 10:25:41;;;;;;;3.37;1.08;;;;;;;;;;4394423;32;317451;-80
2024/04/08 10:28:08;;;;;;;2.22;0.98;;;;;;;;;;4385283;32;317460;-79
2024/04/08 10:30:36;;;;;;;2.50;0.90;;;;;;;;;;4397362;32;317426;-79
2024/04/08 10:33:04;;;;;;;4.47;0.80;;;;;;;;;;4384884;32;317766;-80
2024/04/08 10:35:30;;;;;;;3.03;1.20;;;;;;;;;;4392097;32;343418;-80
2024/04/08 10:37:57;;;;;;;2.87;1.10;;;;;;;;;;4381755;32;317257;-79
2024/04/08 10:40:24;;;;;;;2.78;1.10;;;;;;;;;;4394428;32;317499;-81
2024/04/08 10:42:52;;;;;;;2.22;1.67;;;;;;;;;;4397040;32;317463;-79
2024/04/08 10:45:17;;;;;;;3.35;1.73;;;;;;;;;;4380248;32;317439;-79
2024/04/08 10:47:44;;;;;;;3.20;1.40;;;;;;;;;;4393194;32;317186;-78
2024/04/08 10:50:12;;;;;;;3.00;1.23;;;;;;;;;;4382595;32;355924;-79
2024/04/08 10:52:40;;;;;;;6.03;0.90;;;;;;;;;;4393969;32;317455;-80
2024/04/08 10:55:07;;;;;;;2.83;1.10;;;;;;;;;;4376337;32;317127;-79
2024/04/08 10:57:34;;;;;;;3.03;0.90;;;;;;;;;;4391075;32;341414;-80
2024/04/08 11:00:01;;;;;;;4.95;1.00;;;;;;;;;;4383907;32;317291;-80
2024/04/08 11:02:27;;;;;;;6.82;1.73;;;;;;;;;;4392351;32;317648;-80
2024/04/08 11:04:54;;;;;;;6.45;0.90;;;;;;;;;;4395085;32;316319;-80
2024/04/08 11:07:22;;;;;;;4.18;1.05;;;;;;;;;;4377780;32;417668;-80
2024/04/08 11:09:48;;;;;;;2.65;0.98;;;;;;;;;;4396393;32;317356;-80
2024/04/08 11:12:15;;;;;;;1.70;1.17;;;;;;;;;;4386630;32;317148;-80
2024/04/08 11:14:41;;;;;;;2.05;0.90;;;;;;;;;;4396181;32;317015;-79
2024/04/08 11:17:09;;;;;;;1.55;0.90;;;;;;;;;;4379924;32;317416;-79
2024/04/08 11:19:37;;;;;;;5.20;1.20;;;;;;;;;;4394901;32;317037;-79
2024/04/08 11:22:08;;;;;;;1.42;0.73;;;;;;;;;;4385652;32;317261;-80
2024/04/08 11:24:40;;;;;;;4.90;1.20;;;;;;;;;;4395628;32;317005;-81
2024/04/08 11:27:07;;;;;;;2.95;1.30;;;;;;;;;;4378023;32;317421;-81
2024/04/08 11:29:33;;;;;;;3.80;1.05;;;;;;;;;;4395244;32;317241;-80
2024/04/08 11:32:00;;;;;;;3.58;1.00;;;;;;;;;;4386139;32;317143;-80
2024/04/08 11:34:26;;;;;;;4.05;0.82;;;;;;;;;;4396845;32;317019;-80
2024/04/08 11:36:54;;;;;;;1.60;0.85;;;;;;;;;;4396534;32;317211;-80
2024/04/08 11:39:19;;;;;;;6.28;1.40;;;;;;;;;;4379911;32;416243;-80
2024/04/08 11:41:49;;;;;;;4.82;1.00;;;;;;;;;;4397120;32;316894;-79
2024/04/08 11:44:14;;;;;;;1.10;0.90;;;;;;;;;;4386905;32;317334;-80
2024/04/08 11:46:41;;;;;;;2.37;0.65;;;;;;;;;;4395271;32;317267;-80
2024/04/08 11:49:07;;;;;;;2.30;1.45;;;;;;;;;;4383076;32;317170;-78
2024/04/08 11:51:33;;;;;;;1.35;0.85;;;;;;;;;;4396886;32;316466;-80
2024/04/08 11:53:59;;;;;;;1.37;0.70;;;;;;;;;;4385437;32;326678;-81
2024/04/08 11:56:26;;;;;;;1.05;0.88;;;;;;;;;;4395389;32;354742;-81
2024/04/08 11:58:53;;;;;;;2.75;1.15;;;;;;;;;;4396878;32;317103;-80
2024/04/08 12:01:20;;;;;;;1.77;1.10;;;;;;;;;;4377093;32;416517;-80
2024/04/08 12:03:46;;;;;;;5.10;0.82;;;;;;;;;;4396570;32;317138;-80
2024/04/08 12:06:12;;;;;;;2.22;1.00;;;;;;;;;;4386537;32;317108;-79
2024/04/08 12:08:38;;;;;;;8.70;1.25;;;;;;;;;;4395885;32;348961;-80
2024/04/08 12:11:05;;;;;;;2.03;1.10;;;;;;;;;;4384371;32;317426;-80
2024/04/08 12:13:31;;;;;;;11.90;1.33;;;;;;;;;;4394285;32;317264;-81
2024/04/08 12:15:59;;;;;;;1.67;1.00;;;;;;;;;;4384695;32;359737;-81
2024/04/08 12:18:28;;;;;;;2.05;0.80;;;;;;;;;;4396558;32;342479;-81
2024/04/08 12:20:53;;;;;;;1.92;0.65;;;;;;;;;;4390984;32;358193;-80
2024/04/08 12:23:20;;;;;;;4.18;0.70;;;;;;;;;;4376929;32;374004;-81
2024/04/08 12:25:46;;;;;;;2.70;0.90;;;;;;;;;;4395078;32;317192;-80
2024/04/08 12:28:13;;;;;;;1.87;0.80;;;;;;;;;;4388041;32;317050;-81
2024/04/08 12:30:41;;;;;;;3.62;0.88;;;;;;;;;;4391863;32;317458;-78
2024/04/08 12:33:09;;;;;;;3.05;0.60;;;;;;;;;;4376928;32;317083;-79
2024/04/08 12:35:35;;;;;;;5.03;1.02;;;;;;;;;;4392970;32;317511;-79
2024/04/08 12:38:02;;;;;;;2.60;0.60;;;;;;;;;;4383461;32;316984;-78
2024/04/08 12:40:27;;;;;;;3.15;0.80;;;;;;;;;;4394616;32;317365;-78
2024/04/08 12:42:54;;;;;;;1.23;0.57;;;;;;;;;;4394534;32;316888;-78
2024/04/08 12:45:20;;;;;;;6.18;0.73;;;;;;;;;;4375917;32;416582;-78
2024/04/08 12:47:47;;;;;;;4.30;0.90;;;;;;;;;;4395677;32;317282;-78
2024/04/08 12:50:14;;;;;;;1.55;0.77;;;;;;;;;;4385480;32;317195;-78
2024/04/08 12:52:41;;;;;;;3.20;1.08;;;;;;;;;;4395388;32;317139;-78
2024/04/08 12:55:07;;;;;;;2.50;0.80;;;;;;;;;;4377990;32;317189;-78
2024/04/08 12:57:33;;;;;;;0.90;0.60;;;;;;;;;;4394203;32;316998;-78
2024/04/08 12:59:59;;;;;;;0.75;0.60;;;;;;;;;;4385013;32;317170;-78
2024/04/08 13:02:28;;;;;;;1.27;0.70;;;;;;;;;;4395658;32;317311;-78
2024/04/08 13:04:54;;;;;;;3.37;0.62;;;;;;;;;;4394289;32;317249;-78
2024/04/08 13:07:22;;;;;;;3.40;1.02;;;;;;;;;;4387990;32;317122;-78
2024/04/08 13:09:48;;;;;;;1.75;0.70;;;;;;;;;;4395901;32;317368;-78
2024/04/08 13:12:15;;;;;;;4.03;1.52;;;;;;;;;;4386192;32;320709;-79
2024/04/08 13:14:41;;;;;;;3.33;0.60;;;;;;;;;;4396994;32;317217;-79
2024/04/08 13:17:08;;;;;;;2.55;0.77;;;;;;;;;;4379303;32;317306;-78
2024/04/08 13:19:34;;;;;;;0.90;0.80;;;;;;;;;;4395663;32;317604;-78
2024/04/08 13:22:01;;;;;;;3.45;1.35;;;;;;;;;;4383627;32;317738;-79
2024/04/08 13:24:28;;;;;;;3.85;0.70;;;;;;;;;;4393805;32;322316;-78
2024/04/08 13:26:55;;;;;;;2.45;0.80;;;;;;;;;;4393989;32;317051;-78
2024/04/08 13:29:20;;;;;;;4.68;0.80;;;;;;;;;;4387514;32;317210;-78
2024/04/08 13:31:47;;;;;;;6.50;1.20;;;;;;;;;;4393338;32;317694;-78
2024/04/08 13:34:13;;;;;;;5.68;0.90;;;;;;;;;;4384927;32;317097;-77
2024/04/08 13:36:40;;;;;;;1.40;0.75;;;;;;;;;;4394918;32;317212;-78
2024/04/08 13:39:06;;;;;;;3.23;1.10;;;;;;;;;;4378990;32;353631;-78
2024/04/08 13:41:34;;;;;;;2.15;0.65;;;;;;;;;;4394472;32;317667;-78
2024/04/08 13:44:00;;;;;;;7.60;0.80;;;;;;;;;;4384228;32;317596;-78
2024/04/08 13:46:27;;;;;;;2.28;0.95;;;;;;;;;;4394394;32;316999;-76
2024/04/08 13:48:52;;;;;;;1.70;0.77;;;;;;;;;;4393403;32;316949;-77
2024/04/08 13:51:19;;;;;;;1.17;0.88;;;;;;;;;;4376378;32;317286;-77
2024/04/08 13:53:45;;;;;;;1.10;0.70;;;;;;;;;;4394814;32;317079;-79
2024/04/08 13:56:12;;;;;;;2.55;0.62;;;;;;;;;;4384398;32;317046;-78
2024/04/08 13:58:39;;;;;;;7.32;0.90;;;;;;;;;;4394034;32;334128;-78
2024/04/08 14:01:05;;;;;;;5.70;0.70;;;;;;;;;;4381724;32;317696;-79
2024/04/08 14:03:31;;;;;;;4.50;0.95;;;;;;;;;;4394899;32;317046;-81
2024/04/08 14:05:58;;;;;;;5.53;0.88;;;;;;;;;;4387121;32;317351;-81
2024/04/08 14:08:24;;;;;;;8.45;2.20;;;;;;;;;;4395341;32;317540;-81
2024/04/08 14:10:51;;;;;;;2.70;1.00;;;;;;;;;;4396841;32;317306;-81
2024/04/08 14:13:16;;;;;;;1.12;0.70;;;;;;;;;;4379373;32;339463;-79
2024/04/08 14:15:45;;;;;;;0.88;0.60;;;;;;;;;;4395634;32;317115;-80
2024/04/08 14:18:11;;;;;;;4.22;0.90;;;;;;;;;;4382959;32;317145;-79
2024/04/08 14:20:39;;;;;;;3.28;0.77;;;;;;;;;;4394753;32;317086;-79
2024/04/08 14:23:04;;;;;;;4.27;1.30;;;;;;;;;;4384489;32;318228;-80
2024/04/08 14:25:34;;;;;;;5.07;0.90;;;;;;;;;;4395368;32;353472;-80
2024/04/08 14:28:00;;;;;;;1.87;1.12;;;;;;;;;;4387039;32;317203;-80
2024/04/08 14:30:27;;;;;;;8.32;1.23;;;;;;;;;;4397282;32;317477;-80